PST,Max TemperatureF,Mean TemperatureF,Min TemperatureF,Max Dew PointF,MeanDew PointF,Min DewpointF,Max Humidity, Mean Humidity, Min Humidity, Max Sea Level PressureIn, Mean Sea Level PressureIn, Min Sea Level PressureIn, Max VisibilityMiles, Mean VisibilityMiles, Min VisibilityMiles, Max Wind SpeedMPH, Mean Wind SpeedMPH, Max Gust SpeedMPH,PrecipitationIn, CloudCover, Events, WindDirDegrees
2012-12-1,48,40,32,36,33,32,100,78,54,30.23,30.20,30.17,10,9,0,12,6,23,0.00,1,Fog,242
2012-12-2,50,41,32,41,35,30,100,82,58,30.19,30.17,30.13,10,8,0,16,6,25,0.00,3,Fog,254
2012-12-3,55,42,30,37,24,3,87,56,12,30.33,30.24,30.17,10,10,4,13,7,21,0.00,2,,255
2012-12-4,62,45,28,28,19,9,69,46,12,30.39,30.36,30.32,10,10,7,12,2,,0.00,0,,254
2012-12-5,62,44,26,34,23,9,93,53,14,30.36,30.25,30.16,10,10,7,13,3,21,0.00,0,,252
2012-12-6,51,40,26,36,30,23,100,75,47,30.14,30.08,30.03,10,10,7,12,3,,0.00,0,,55
2012-12-7,51,37,23,32,19,3,86,60,14,30.14,30.11,30.08,10,10,7,10,1,,0.00,0,,83
2012-12-8,53,35,17,18,9,-6,63,43,9,30.11,30.07,30.03,10,10,10,9,1,,0.00,0,,252
2012-12-9,51,36,21,18,12,5,68,45,16,30.28,30.18,30.08,10,10,7,14,2,24,0.00,0,,62
2012-12-10,51,37,23,21,15,10,63,46,28,30.29,30.25,30.21,10,10,7,10,2,,0.00,0,,57
2012-12-11,51,38,24,23,16,10,60,36,19,30.21,30.09,30.03,10,10,10,15,7,21,0.00,0,,258
2012-12-12,44,38,32,30,17,-4,87,47,13,30.02,29.89,29.81,10,10,5,18,11,37,0.00,0,Rain,236
2012-12-13,33,30,28,30,29,25,93,89,80,29.80,29.73,29.64,10,5,0,13,6,23,0.23,7,Snow,238
2012-12-14,28,24,21,25,20,12,86,78,64,29.86,29.76,29.64,10,8,1,20,9,29,0.00,5,Snow,252
2012-12-15,32,28,23,25,18,5,86,65,32,29.98,29.90,29.81,10,8,1,17,9,26,0.00,4,Snow,255
2012-12-16,37,32,26,32,29,21,100,86,70,30.14,30.07,29.97,10,8,1,16,9,22,0.00,5,Snow,252
2012-12-17,48,38,28,34,30,27,93,83,43,30.15,30.08,29.99,10,10,1,14,7,18,0.00,1,,255
2012-12-18,35,26,17,32,25,9,93,84,63,29.98,29.81,29.70,10,5,0,24,12,36,0.13,6,Rain-Snow,250
2012-12-19,32,22,12,9,0,-13,79,45,14,30.26,30.10,29.85,10,10,7,13,6,22,0.00,1,,77
2012-12-20,46,28,10,21,8,1,86,54,16,30.25,30.20,30.14,10,9,2,13,2,16,0.00,0,,244
2012-12-21,46,30,15,18,8,0,73,48,14,30.16,30.13,30.09,10,10,7,13,1,,0.00,0,,258
2012-12-22,42,28,15,30,10,-13,87,51,9,30.15,30.11,30.08,10,10,10,16,5,23,0.00,1,,249
2012-12-23,39,34,28,32,26,19,100,76,45,30.15,30.11,30.07,10,9,0,17,7,23,0.00,3,Fog,250
2012-12-24,42,32,21,32,23,3,93,68,19,30.14,30.05,30.00,10,9,2,21,9,33,0.00,3,,255
2012-12-25,42,30,19,21,15,10,80,57,27,30.11,30.05,29.94,10,10,5,12,2,,0.00,1,,246
2012-12-26,33,28,24,28,22,7,93,74,32,29.93,29.86,29.82,10,7,0,20,11,30,0.06,4,Snow,256
2012-12-27,32,23,14,21,17,9,93,72,48,30.04,29.92,29.83,10,10,4,17,7,23,0.00,3,,281
2012-12-28,33,20,6,18,11,1,85,66,35,30.10,30.05,30.00,10,10,3,8,1,,0.00,1,,95
2012-12-29,33,26,19,23,19,12,86,73,55,30.00,29.93,29.87,10,9,1,12,4,,0.00,4,Snow,239
2012-12-30,30,21,12,21,17,9,93,80,64,29.95,29.85,29.79,10,7,0,9,2,,0.00,6,Fog-Snow,352
2012-12-31,37,22,6,18,5,-6,86,57,17,30.16,30.07,29.95,10,9,2,12,2,20,0.00,1,Snow,67